Auburn, MA (01501)

12:44 PM EDT on August 21, 2014 (GMT -0400)
Pakachoag Golf Course Vicinity | Change Station
CLOSE
Current Station
Personal Weather Station
Location: Auburn, MA
Elevation: 640 ft
Nearby Weather Stations

Elev 640 ft 42.22 °N, 71.81 °W | Updated 8 minutes ago

Overcast
Overcast
70.9 °F
Feels Like 76 °F
N
2.0
Wind Variable Wind from East
Gusts 7.0 mph

Today
High -- | Low -- °F
--% Chance of Precip.
Yesterday
High -- | Low -- °F
Precip. -- in
6:01 AM 7:39 PM
Waning Crescent, 13% visible
Pressure 30.09 in
Visibility 10.0 miles
Clouds Few 4700 ft
Overcast 9500 ft
Heat Index 76 °F
Dew Point 56 °F
Humidity 59%
Rainfall 0.00 in
Snow Depth Not available.
UV 3 out of 12
Pollen 8.70 out of 12
PM2.5 Good
Flu Activity Not available.
METAR KORH 211554Z 10005KT 10SM FEW047 OVC095 21/11 A3010 RMK AO2 SLP190 T02060106

More Conditions Fewer Conditions

Pressure 30.09 in
Visibility 10.0 miles
Clouds Few 4700 ft
Overcast 9500 ft
Heat Index 76 °F
Dew Point 56 °F
Humidity 59%
Rainfall 0.00 in
Snow Depth Not available.
UV 3 out of 12
Pollen 8.70 out of 12
PM2.5 Good
Flu Activity Not available.
METAR KORH 211554Z 10005KT 10SM FEW047 OVC095 21/11 A3010 RMK AO2 SLP190 T02060106

More Conditions Fewer Conditions

10-Day Weather Forecast

Almanac

Astronomy

Aug. 21, 2014 Rise Set
Actual Time 6:01 AM EDT 7:39 PM EDT
Civil Twilight 5:31 AM EDT 8:08 PM EDT
Nautical Twilight 4:55 AM EDT 8:44 PM EDT
Astronomical Twilight 4:17 AM EDT 9:22 PM EDT
Moon 2:27 AM EDT 5:07 PM EDT
Length of Visible Light 14h 37m
Length of Day
13h 37m
Tomorrow will be 2m 37s shorter.
Waning Crescent, 13% of the Moon is Illuminated
Today
Waning Crescent
Aug 25
New
Sep 2
First Quarter
Sep 8
Full
Sep 15
Last Quarter

Today's Extremes

State Highs State Lows

Community

WunderPhotos

Upload Photos

1,745,957 photos uploaded!

Nearby

Air Quality

  Air Quality AQ Index Pollutant
Yesterday Good
OZONE
Yesterday Good
PM2.5
Current Good
PM2.5
Thursday Good
PM2.5
Thursday Good
OZONE

Snow Depth

Station Depth Elevation
No new snow has been reported.

Earthquake Activity

City Distance Mag. Time & Date
No recent earthquake activity has been reported nearby.
Minimum magnitude displayed is 2.5.

Coastal Water Temperatures

Place Temperature
No Stations Reporting

Nearby Weather Stations